Time;durP1;ratioP1;P1;durP2;ratioP2;P2;SDS_P1;SDS_P2;PMS_P1;PMS_P2;Temp;Humidity;BMP_temperature;BMP_pressure;BME280_temperature;BME280_humidity;BME280_pressure;Samples;Min_cycle;Max_cycle;Signal;HPM_P1;HPM_P2
2023/09/07 00:01:31;;;;;;;5.37;3.60;;;19.70;99.90;;;;;;6099198;23;20462;-93
2023/09/07 00:03:56;;;;;;;3.47;3.17;;;19.20;99.90;;;;;;6097713;23;20371;-92
2023/09/07 00:06:22;;;;;;;4.75;3.35;;;19.30;99.90;;;;;;6099336;23;20749;-92
2023/09/07 00:08:48;;;;;;;4.93;3.57;;;19.10;99.90;;;;;;6097901;23;20375;-92
2023/09/07 00:11:13;;;;;;;6.00;3.60;;;19.10;99.90;;;;;;6098868;23;20375;-92
2023/09/07 00:13:39;;;;;;;4.28;3.67;;;18.90;99.90;;;;;;6097360;23;20662;-91
2023/09/07 00:16:05;;;;;;;4.55;4.05;;;19.00;99.90;;;;;;6098766;23;20376;-92
2023/09/07 00:18:32;;;;;;;5.70;3.92;;;18.90;99.90;;;;;;6098853;23;20749;-90
2023/09/07 00:21:01;;;;;;;4.88;4.40;;;18.60;99.90;;;;;;6098582;23;20725;-91
2023/09/07 00:23:26;;;;;;;5.22;3.92;;;19.20;99.90;;;;;;6119226;23;20387;-91
2023/09/07 00:25:53;;;;;;;5.53;4.73;;;18.80;99.90;;;;;;6097307;23;20429;-92
2023/09/07 00:28:18;;;;;;;4.13;3.72;;;18.80;99.90;;;;;;6098825;23;20386;-91
2023/09/07 00:30:44;;;;;;;5.25;4.10;;;18.80;99.90;;;;;;6097074;23;20371;-92
2023/09/07 00:33:10;;;;;;;4.37;3.97;;;18.70;99.90;;;;;;6098572;23;20453;-92
2023/09/07 00:35:36;;;;;;;7.22;5.00;;;18.90;99.90;;;;;;6097950;23;20847;-90
2023/09/07 00:38:02;;;;;;;4.47;4.10;;;18.80;99.90;;;;;;6099513;23;20847;-92
2023/09/07 00:40:28;;;;;;;5.10;4.60;;;18.60;99.90;;;;;;6102127;23;20383;-91
2023/09/07 00:42:54;;;;;;;5.60;4.93;;;19.00;99.90;;;;;;6125164;23;20749;-91
2023/09/07 00:45:20;;;;;;;5.13;4.65;;;18.50;99.90;;;;;;6102166;23;20407;-92
2023/09/07 00:47:46;;;;;;;8.37;5.47;;;18.80;99.90;;;;;;6100429;23;20378;-91
2023/09/07 00:50:13;;;;;;;6.05;5.20;;;18.40;99.90;;;;;;6126939;23;20409;-91
2023/09/07 00:52:42;;;;;;;6.23;5.47;;;18.80;99.90;;;;;;6100449;23;20371;-91
2023/09/07 00:55:08;;;;;;;5.65;5.05;;;18.40;99.90;;;;;;6102256;23;20389;-92
2023/09/07 00:57:34;;;;;;;5.80;5.22;;;18.30;99.90;;;;;;6101758;23;20398;-91
2023/09/07 01:00:00;;;;;;;5.25;4.85;;;18.30;99.90;;;;;;6101044;23;20374;-93
2023/09/07 01:02:26;;;;;;;6.77;6.07;;;18.30;99.90;;;;;;6101949;23;20382;-91
2023/09/07 01:04:52;;;;;;;5.90;5.40;;;18.20;99.90;;;;;;6100468;23;20434;-91
2023/09/07 01:07:25;;;;;;;8.52;7.82;;;18.20;99.90;;;;;;6102515;23;20375;-91
2023/09/07 01:09:56;;;;;;;6.20;5.60;;;18.20;99.90;;;;;;6100703;23;20463;-91
2023/09/07 01:12:21;;;;;;;6.07;5.47;;;18.20;99.90;;;;;;6102073;23;21155;-91
2023/09/07 01:14:47;;;;;;;5.82;5.28;;;18.20;99.90;;;;;;6101107;23;20398;-92
2023/09/07 01:17:13;;;;;;;6.10;5.50;;;18.70;99.90;;;;;;6101253;23;20370;-91
2023/09/07 01:19:40;;;;;;;6.43;5.80;;;18.20;99.90;;;;;;6102723;23;20974;-91
2023/09/07 01:22:10;;;;;;;6.72;6.13;;;18.20;99.90;;;;;;6124993;23;21057;-90
2023/09/07 01:24:38;;;;;;;7.35;6.70;;;18.10;99.90;;;;;;6102639;23;20795;-93
2023/09/07 01:27:05;;;;;;;8.18;7.47;;;18.10;99.90;;;;;;6100150;23;20425;-91
2023/09/07 01:29:31;;;;;;;8.68;7.88;;;18.50;99.90;;;;;;6101974;23;20733;-92
2023/09/07 01:31:57;;;;;;;7.80;7.00;;;18.20;99.90;;;;;;6100783;23;20378;-92
2023/09/07 01:34:24;;;;;;;7.78;7.18;;;18.00;99.90;;;;;;6101125;23;20384;-90
2023/09/07 01:36:50;;;;;;;7.90;7.20;;;18.10;99.90;;;;;;6101954;23;20389;-92
2023/09/07 01:39:16;;;;;;;8.10;7.40;;;18.00;99.90;;;;;;6100349;23;20398;-90
2023/09/07 01:41:43;;;;;;;7.20;6.60;;;18.30;99.90;;;;;;6126650;23;20374;-92
2023/09/07 01:44:09;;;;;;;8.48;7.70;;;17.80;99.90;;;;;;6099881;23;20367;-92
2023/09/07 01:46:35;;;;;;;7.53;6.83;;;17.80;99.90;;;;;;6102172;23;20410;-92
2023/09/07 01:49:02;;;;;;;7.72;7.05;;;17.70;99.90;;;;;;6125323;23;20375;-92
2023/09/07 01:51:28;;;;;;;6.90;6.30;;;18.00;99.90;;;;;;6100006;23;20670;-91
2023/09/07 01:53:54;;;;;;;8.07;7.47;;;18.10;99.90;;;;;;6100636;23;20728;-93
2023/09/07 01:56:20;;;;;;;6.97;6.28;;;17.70;99.90;;;;;;6099436;23;20851;-91
2023/09/07 01:58:45;;;;;;;8.23;7.53;;;18.10;99.90;;;;;;6124589;23;20382;-92
2023/09/07 02:01:41;;;;;;;8.30;7.57;;;17.60;99.90;;;;;;6098235;23;20852;-91
2023/09/07 02:04:06;;;;;;;7.78;7.07;;;18.10;99.90;;;;;;6069913;23;20379;-92
2023/09/07 02:06:32;;;;;;;6.80;6.20;;;17.50;99.90;;;;;;6123319;23;20374;-92
2023/09/07 02:08:58;;;;;;;8.18;7.38;;;17.50;99.90;;;;;;6099824;23;20375;-91
2023/09/07 02:11:23;;;;;;;8.77;7.47;;;17.50;99.90;;;;;;6100050;23;20462;-91
2023/09/07 02:13:49;;;;;;;8.15;7.35;;;17.40;99.90;;;;;;6098483;23;20426;-92
2023/09/07 02:16:15;;;;;;;8.20;7.40;;;17.40;99.90;;;;;;6100645;23;20379;-92
2023/09/07 02:18:45;;;;;;;10.27;9.38;;;17.50;99.90;;;;;;6097593;23;20370;-91
2023/09/07 02:21:11;;;;;;;9.25;8.45;;;17.60;99.90;;;;;;6099788;23;20410;-91
2023/09/07 02:23:37;;;;;;;8.55;7.75;;;17.30;99.90;;;;;;6097498;23;20736;-91
2023/09/07 02:26:04;;;;;;;8.50;7.70;;;17.50;99.90;;;;;;6099346;23;20382;-93
2023/09/07 02:28:30;;;;;;;11.50;10.50;;;17.20;99.90;;;;;;6098858;23;20919;-91
2023/09/07 02:31:02;;;;;;;8.82;7.32;;;17.60;99.90;;;;;;6098819;23;20407;-92
2023/09/07 02:33:28;;;;;;;9.75;8.98;;;17.10;99.90;;;;;;6099703;23;20423;-91
2023/09/07 02:35:54;;;;;;;10.00;9.03;;;17.10;99.90;;;;;;6098643;23;20375;-91
2023/09/07 02:38:19;;;;;;;11.27;10.30;;;17.10;99.90;;;;;;6100051;23;20367;-92
2023/09/07 02:40:45;;;;;;;10.80;9.88;;;17.00;99.90;;;;;;6098442;23;20383;-92
2023/09/07 02:43:11;;;;;;;10.63;9.70;;;17.00;99.90;;;;;;6099812;23;20534;-91
2023/09/07 02:45:38;;;;;;;10.27;9.23;;;16.90;99.90;;;;;;6123506;23;20713;-91
2023/09/07 02:48:05;;;;;;;12.88;11.75;;;16.90;99.90;;;;;;6123957;23;20482;-91
2023/09/07 02:50:33;;;;;;;12.98;11.88;;;16.90;99.90;;;;;;6124308;23;20462;-90
2023/09/07 02:53:00;;;;;;;11.95;10.85;;;17.10;99.90;;;;;;6098054;23;20433;-93
2023/09/07 02:55:29;;;;;;;11.40;10.48;;;16.90;99.90;;;;;;6124393;23;20381;-90
2023/09/07 02:57:56;;;;;;;11.82;10.77;;;16.90;99.90;;;;;;6091341;23;20403;-91
2023/09/07 03:00:22;;;;;;;11.93;10.93;;;16.90;99.90;;;;;;6100339;23;20367;-92
2023/09/07 03:02:48;;;;;;;11.98;10.93;;;16.80;99.90;;;;;;6098902;23;20375;-91
2023/09/07 03:05:15;;;;;;;12.50;11.40;;;16.90;99.90;;;;;;6099944;23;20674;-91
2023/09/07 03:07:41;;;;;;;12.15;11.15;;;16.90;99.90;;;;;;6124015;23;20374;-91
2023/09/07 03:10:07;;;;;;;11.73;10.73;;;16.90;99.90;;;;;;6098274;23;20441;-91
2023/09/07 03:12:34;;;;;;;11.95;10.90;;;16.90;99.90;;;;;;6124099;23;20461;-91
2023/09/07 03:15:03;;;;;;;13.30;12.15;;;17.30;99.90;;;;;;6097760;23;20402;-92
2023/09/07 03:17:29;;;;;;;12.52;11.43;;;17.10;99.90;;;;;;6100024;23;20441;-91
2023/09/07 03:19:55;;;;;;;11.57;10.47;;;16.80;99.90;;;;;;6097922;23;20371;-91
2023/09/07 03:22:21;;;;;;;12.10;11.00;;;17.10;99.90;;;;;;6123928;23;20398;-91
2023/09/07 03:24:47;;;;;;;11.68;10.57;;;16.40;99.90;;;;;;6098956;23;21151;-91
2023/09/07 03:27:12;;;;;;;11.23;10.25;;;17.00;99.90;;;;;;6098374;23;20415;-91
2023/09/07 03:29:39;;;;;;;12.33;11.23;;;17.10;99.90;;;;;;6099193;23;20860;-90
2023/09/07 03:32:05;;;;;;;11.88;10.88;;;17.10;99.90;;;;;;6098074;23;20377;-91
2023/09/07 03:34:30;;;;;;;12.05;10.80;;;16.90;99.90;;;;;;6099492;23;20391;-91
2023/09/07 03:36:57;;;;;;;11.82;10.73;;;16.90;99.90;;;;;;6097374;23;20933;-90
2023/09/07 03:39:23;;;;;;;13.00;11.60;;;16.90;99.90;;;;;;6099542;23;20375;-90
2023/09/07 03:41:48;;;;;;;11.77;10.77;;;16.90;99.90;;;;;;6098038;23;20719;-91
2023/09/07 03:44:14;;;;;;;12.50;11.33;;;17.30;99.90;;;;;;6099060;23;20373;-90
2023/09/07 03:46:40;;;;;;;12.35;11.25;;;16.80;99.90;;;;;;6099881;23;20410;-91
2023/09/07 03:49:05;;;;;;;12.70;11.37;;;17.00;99.90;;;;;;6098016;23;20849;-91
2023/09/07 03:51:31;;;;;;;12.20;11.10;;;17.10;99.90;;;;;;6098954;23;20793;-91
2023/09/07 03:53:57;;;;;;;11.57;10.57;;;17.00;99.90;;;;;;6097071;23;20469;-91
2023/09/07 03:56:23;;;;;;;12.13;11.03;;;16.90;99.90;;;;;;6099108;23;20385;-91
2023/09/07 03:58:49;;;;;;;12.23;11.10;;;17.00;99.90;;;;;;6097457;23;20434;-91
2023/09/07 04:01:14;;;;;;;11.90;11.00;;;16.90;99.90;;;;;;6099676;23;20379;-91
2023/09/07 04:03:40;;;;;;;12.52;11.48;;;17.40;99.90;;;;;;6098336;23;20461;-91
2023/09/07 04:06:06;;;;;;;12.43;11.53;;;17.30;99.90;;;;;;6122602;23;20394;-91
2023/09/07 04:08:32;;;;;;;12.40;11.40;;;17.30;99.90;;;;;;6099478;23;20418;-92
2023/09/07 04:10:58;;;;;;;12.18;11.18;;;17.30;99.90;;;;;;6097886;23;20402;-90
2023/09/07 04:13:23;;;;;;;13.50;12.32;;;17.30;99.90;;;;;;6093839;23;20870;-92
2023/09/07 04:15:49;;;;;;;12.10;11.00;;;16.90;99.90;;;;;;6092488;23;20381;-91
2023/09/07 04:18:16;;;;;;;13.63;12.32;;;16.80;99.90;;;;;;6094750;23;20369;-91
2023/09/07 04:20:42;;;;;;;12.93;11.90;;;16.90;99.90;;;;;;6092671;23;20369;-91
2023/09/07 04:23:08;;;;;;;13.15;11.85;;;16.80;99.90;;;;;;6093566;23;20369;-90
2023/09/07 04:25:34;;;;;;;12.90;11.80;;;17.00;99.90;;;;;;6094024;23;20815;-91
2023/09/07 04:28:00;;;;;;;13.20;12.00;;;17.20;99.90;;;;;;6092791;23;20711;-92
2023/09/07 04:30:26;;;;;;;13.23;12.02;;;16.90;99.90;;;;;;6093993;23;20385;-91
2023/09/07 04:32:51;;;;;;;12.30;11.20;;;17.10;99.90;;;;;;6091975;23;20432;-91
2023/09/07 04:35:17;;;;;;;12.73;11.63;;;17.10;99.90;;;;;;6094614;23;20476;-91
2023/09/07 04:37:44;;;;;;;13.18;12.05;;;17.00;99.90;;;;;;6092640;23;20364;-92
2023/09/07 04:40:11;;;;;;;12.75;11.55;;;16.70;99.90;;;;;;6093618;23;20368;-90
2023/09/07 04:42:40;;;;;;;12.88;11.75;;;16.70;99.90;;;;;;6117674;23;20379;-91
2023/09/07 04:45:06;;;;;;;13.45;12.15;;;16.70;99.90;;;;;;6093079;23;20408;-91
2023/09/07 04:47:32;;;;;;;13.52;12.20;;;16.70;99.90;;;;;;6092980;23;20372;-91
2023/09/07 04:49:58;;;;;;;12.53;11.43;;;16.40;99.90;;;;;;6091825;23;20941;-91
2023/09/07 04:52:24;;;;;;;12.25;11.23;;;16.70;99.90;;;;;;6093166;23;20369;-90
2023/09/07 04:54:49;;;;;;;13.57;12.37;;;17.00;99.90;;;;;;6091806;23;20396;-91
2023/09/07 04:57:18;;;;;;;12.40;11.32;;;17.10;99.90;;;;;;6093928;23;20371;-92
2023/09/07 04:59:44;;;;;;;12.97;11.93;;;16.60;99.90;;;;;;6092746;23;20381;-91
2023/09/07 05:02:11;;;;;;;13.45;12.27;;;16.90;99.90;;;;;;6093629;23;20384;-89
2023/09/07 05:04:37;;;;;;;12.95;11.68;;;16.60;99.90;;;;;;6118292;23;20377;-91
2023/09/07 05:07:03;;;;;;;12.57;11.40;;;16.90;99.90;;;;;;6117081;23;20471;-89
2023/09/07 05:09:29;;;;;;;12.98;11.88;;;16.60;99.90;;;;;;6094552;23;20385;-91
2023/09/07 05:11:55;;;;;;;13.90;12.70;;;16.90;99.90;;;;;;6092440;23;20373;-90
2023/09/07 05:14:23;;;;;;;12.63;11.52;;;16.60;99.90;;;;;;6118475;23;20461;-91
2023/09/07 05:16:49;;;;;;;12.10;11.00;;;16.80;99.90;;;;;;6091395;23;20380;-89
2023/09/07 05:19:15;;;;;;;13.00;11.80;;;16.90;99.90;;;;;;6093509;23;20937;-90
2023/09/07 05:21:40;;;;;;;13.40;12.20;;;16.60;99.90;;;;;;6091999;23;20468;-89
2023/09/07 05:24:06;;;;;;;13.45;12.15;;;16.90;99.90;;;;;;6092352;23;20392;-90
2023/09/07 05:26:32;;;;;;;13.27;12.07;;;16.70;99.90;;;;;;6094445;23;20377;-88
2023/09/07 05:28:57;;;;;;;12.90;11.68;;;16.70;99.90;;;;;;6092693;23;20750;-90
2023/09/07 05:31:23;;;;;;;13.30;11.93;;;17.20;99.90;;;;;;6095478;23;20889;-89
2023/09/07 05:33:49;;;;;;;12.85;11.75;;;16.90;99.90;;;;;;6093147;23;20451;-90
2023/09/07 05:36:14;;;;;;;12.57;11.37;;;17.10;99.90;;;;;;6095850;23;20380;-90
2023/09/07 05:38:40;;;;;;;11.60;10.63;;;17.30;99.90;;;;;;6093790;23;20434;-89
2023/09/07 05:41:06;;;;;;;12.52;11.43;;;17.30;99.90;;;;;;6095151;23;20377;-90
2023/09/07 05:43:32;;;;;;;11.48;10.38;;;17.20;99.90;;;;;;6119659;23;20472;-90
2023/09/07 05:45:58;;;;;;;11.90;10.77;;;17.70;99.90;;;;;;6118402;23;20751;-91
2023/09/07 05:48:23;;;;;;;11.43;10.33;;;17.40;99.90;;;;;;6095530;23;20451;-89
2023/09/07 05:50:49;;;;;;;11.07;10.13;;;17.40;99.90;;;;;;6093078;23;20464;-92
2023/09/07 05:53:15;;;;;;;12.27;10.97;;;17.50;99.90;;;;;;6094472;23;20957;-91
2023/09/07 05:55:40;;;;;;;11.02;10.00;;;18.10;99.90;;;;;;6093119;23;20377;-90
2023/09/07 05:58:07;;;;;;;11.73;10.70;;;17.70;99.90;;;;;;6119280;23;20376;-90
2023/09/07 06:00:38;;;;;;;11.57;10.38;;;17.80;99.90;;;;;;6092577;23;20372;-89
2023/09/07 06:03:05;;;;;;;10.60;9.70;;;18.00;99.90;;;;;;6093914;23;20420;-89
2023/09/07 06:05:31;;;;;;;12.05;10.85;;;18.40;99.90;;;;;;6094328;23;20415;-89
2023/09/07 06:07:57;;;;;;;10.88;9.88;;;18.10;99.90;;;;;;6092556;23;20456;-89
2023/09/07 06:10:23;;;;;;;10.70;9.80;;;18.60;99.90;;;;;;6118664;23;20965;-89
2023/09/07 06:12:49;;;;;;;10.18;9.38;;;18.80;99.90;;;;;;6093948;23;20450;-89
2023/09/07 06:15:15;;;;;;;10.68;9.68;;;18.50;99.90;;;;;;6099493;23;20382;-90
2023/09/07 06:17:40;;;;;;;11.60;9.55;;;18.70;99.90;;;;;;6097415;23;20441;-88
2023/09/07 06:20:07;;;;;;;10.07;8.97;;;18.80;99.90;;;;;;6098560;23;20458;-90
2023/09/07 06:22:32;;;;;;;10.75;9.38;;;18.90;99.90;;;;;;6098223;23;20371;-90
2023/09/07 06:24:58;;;;;;;9.85;8.82;;;19.00;99.90;;;;;;6098428;23;20767;-90
2023/09/07 06:27:23;;;;;;;9.27;8.40;;;19.10;99.90;;;;;;6100319;23;20487;-91
2023/09/07 06:29:50;;;;;;;8.77;7.97;;;19.30;99.90;;;;;;6097657;23;20692;-90
2023/09/07 06:32:16;;;;;;;9.60;8.70;;;19.30;99.90;;;;;;6099707;23;20367;-89
2023/09/07 06:34:42;;;;;;;9.38;8.40;;;19.40;99.90;;;;;;6097820;23;20436;-91
2023/09/07 06:37:08;;;;;;;9.15;8.35;;;19.60;99.90;;;;;;6122221;23;20374;-91
2023/09/07 06:39:34;;;;;;;9.77;8.77;;;19.70;99.90;;;;;;6121763;23;20708;-90
2023/09/07 06:41:59;;;;;;;9.10;8.20;;;19.90;99.90;;;;;;6097858;23;20379;-91
2023/09/07 06:44:25;;;;;;;9.00;8.20;;;19.90;99.90;;;;;;6097983;23;20403;-91
2023/09/07 06:46:51;;;;;;;8.90;8.03;;;19.90;99.90;;;;;;6096644;23;20840;-91
2023/09/07 06:49:17;;;;;;;9.10;8.30;;;20.10;99.90;;;;;;6098467;23;20879;-91
2023/09/07 06:51:42;;;;;;;8.93;8.03;;;20.20;99.90;;;;;;6096630;23;20859;-92
2023/09/07 06:54:08;;;;;;;9.35;8.07;;;20.10;99.90;;;;;;6098309;23;20727;-89
2023/09/07 06:56:34;;;;;;;9.03;8.10;;;20.80;99.90;;;;;;6097152;23;20381;-90
2023/09/07 06:59:01;;;;;;;8.40;7.60;;;20.50;99.90;;;;;;6098094;23;20375;-92
2023/09/07 07:01:26;;;;;;;8.43;7.72;;;20.70;99.90;;;;;;6097797;23;20442;-91
2023/09/07 07:03:52;;;;;;;8.90;8.17;;;21.00;99.90;;;;;;6096947;23;20763;-92
2023/09/07 07:06:19;;;;;;;8.77;7.90;;;21.00;99.90;;;;;;6098519;23;20386;-91
2023/09/07 07:08:44;;;;;;;8.33;7.73;;;21.10;99.90;;;;;;6096647;23;20395;-92
2023/09/07 07:11:10;;;;;;;8.32;7.53;;;21.10;99.90;;;;;;6098442;23;20378;-91
2023/09/07 07:13:36;;;;;;;8.40;7.60;;;21.60;99.90;;;;;;6096429;23;20406;-92
2023/09/07 07:16:03;;;;;;;8.57;7.57;;;21.40;99.90;;;;;;6098268;23;20761;-92
2023/09/07 07:18:29;;;;;;;7.25;6.57;;;21.50;99.90;;;;;;6121699;23;20383;-89
2023/09/07 07:20:55;;;;;;;7.75;7.07;;;21.70;99.90;;;;;;6097632;23;20449;-90
2023/09/07 07:23:20;;;;;;;8.50;7.00;;;22.10;99.90;;;;;;6098194;23;20386;-91
2023/09/07 07:25:46;;;;;;;7.40;6.55;;;21.80;99.90;;;;;;6096547;23;20873;-91
2023/09/07 07:28:12;;;;;;;6.95;6.38;;;22.40;99.90;;;;;;6098531;23;20879;-91
2023/09/07 07:30:40;;;;;;;7.13;6.13;;;22.00;99.90;;;;;;6096210;23;20379;-91
2023/09/07 07:33:06;;;;;;;6.63;6.03;;;22.10;99.90;;;;;;6098723;23;20502;-90
2023/09/07 07:35:36;;;;;;;6.15;5.20;;;22.20;99.90;;;;;;6096702;23;20371;-90
2023/09/07 07:38:07;;;;;;;5.35;4.80;;;22.30;99.90;;;;;;6097971;23;20381;-92
2023/09/07 07:40:33;;;;;;;5.15;4.65;;;22.50;99.90;;;;;;6122615;23;20374;-92
2023/09/07 07:42:59;;;;;;;8.52;4.35;;;22.70;99.90;;;;;;6096832;23;20385;-90
2023/09/07 07:45:25;;;;;;;5.53;4.30;;;22.70;99.90;;;;;;6098285;23;20367;-90
2023/09/07 07:47:52;;;;;;;5.70;4.22;;;22.90;99.90;;;;;;6095748;23;20370;-91
2023/09/07 07:50:18;;;;;;;5.00;3.88;;;23.20;99.90;;;;;;6098051;23;20378;-92
2023/09/07 07:52:44;;;;;;;5.20;3.80;;;23.10;97.30;;;;;;6096440;23;20394;-91
2023/09/07 07:55:10;;;;;;;4.38;3.65;;;23.20;96.70;;;;;;6098021;23;20724;-90
2023/09/07 07:57:36;;;;;;;5.38;3.88;;;23.30;96.60;;;;;;6097314;23;20430;-91
2023/09/07 08:00:04;;;;;;;4.20;3.80;;;23.40;94.40;;;;;;6097032;23;20765;-90
2023/09/07 08:02:30;;;;;;;5.05;3.78;;;23.50;96.30;;;;;;6098208;23;20367;-89
2023/09/07 08:04:57;;;;;;;5.30;3.85;;;23.50;92.80;;;;;;6096565;23;20379;-91
2023/09/07 08:07:22;;;;;;;4.40;4.00;;;23.60;92.70;;;;;;6122842;23;20370;-89
2023/09/07 08:09:48;;;;;;;5.90;4.03;;;23.70;93.20;;;;;;6095820;23;20410;-92
2023/09/07 08:12:13;;;;;;;5.47;3.60;;;23.70;90.00;;;;;;6098003;23;20394;-91
2023/09/07 08:14:39;;;;;;;6.47;4.90;;;23.80;88.30;;;;;;6096082;23;20399;-90
2023/09/07 08:17:05;;;;;;;20.17;14.80;;;24.10;90.00;;;;;;6097564;23;20382;-90
2023/09/07 08:19:31;;;;;;;15.90;12.20;;;24.20;95.80;;;;;;6097771;23;20378;-91
2023/09/07 08:22:03;;;;;;;7.75;6.07;;;24.10;94.00;;;;;;6120984;23;20386;-91
2023/09/07 08:24:29;;;;;;;5.95;4.68;;;24.20;86.00;;;;;;6122700;23;20464;-92
2023/09/07 08:26:57;;;;;;;4.32;3.90;;;24.30;88.50;;;;;;6096010;23;20432;-94
2023/09/07 08:29:26;;;;;;;4.40;4.00;;;24.30;84.40;;;;;;6122574;23;20371;-91
2023/09/07 08:31:55;;;;;;;5.68;4.07;;;24.30;80.00;;;;;;6096158;23;20376;-91
2023/09/07 08:34:22;;;;;;;4.97;3.90;;;24.40;81.70;;;;;;6097719;23;20474;-92
2023/09/07 08:36:49;;;;;;;3.90;3.60;;;24.40;90.50;;;;;;6097283;23;20375;-90
2023/09/07 08:39:16;;;;;;;5.22;3.55;;;24.40;84.50;;;;;;6096466;23;20377;-92
2023/09/07 08:41:45;;;;;;;6.05;3.72;;;24.60;77.60;;;;;;6097612;23;20367;-92
2023/09/07 08:44:15;;;;;;;5.07;3.60;;;24.60;80.30;;;;;;6120478;23;20371;-91
2023/09/07 08:46:41;;;;;;;6.43;3.60;;;24.70;80.50;;;;;;6097697;23;20481;-92
2023/09/07 08:49:09;;;;;;;5.23;3.73;;;24.80;89.20;;;;;;6096200;23;20371;-91
2023/09/07 08:51:37;;;;;;;4.70;3.20;;;24.90;88.50;;;;;;6097709;23;20962;-90
2023/09/07 08:54:07;;;;;;;4.70;3.53;;;24.40;80.50;;;;;;6097107;23;20407;-92
2023/09/07 08:56:33;;;;;;;3.78;3.40;;;25.00;81.10;;;;;;6120601;23;20372;-92
2023/09/07 08:58:59;;;;;;;4.10;3.60;;;25.10;87.00;;;;;;6122310;23;20402;-91
2023/09/07 09:01:24;;;;;;;3.95;3.33;;;25.10;80.70;;;;;;6122396;23;20375;-91
2023/09/07 09:03:51;;;;;;;5.32;3.40;;;25.20;84.60;;;;;;6099549;23;20505;-92
2023/09/07 09:06:18;;;;;;;5.13;3.58;;;25.30;91.10;;;;;;6098056;23;20382;-90
2023/09/07 09:08:53;;;;;;;4.60;3.38;;;25.40;83.80;;;;;;6100048;23;20454;-91
2023/09/07 09:11:20;;;;;;;4.15;3.30;;;25.40;86.60;;;;;;6098924;23;20383;-91
2023/09/07 09:13:47;;;;;;;4.18;3.45;;;25.50;78.40;;;;;;6098146;23;20465;-90
2023/09/07 09:16:13;;;;;;;3.83;3.40;;;25.50;82.90;;;;;;6100305;23;20387;-90
2023/09/07 09:18:52;;;;;;;5.90;3.20;;;25.50;78.60;;;;;;6097432;23;20732;-93
2023/09/07 09:21:21;;;;;;;4.50;3.27;;;25.60;79.40;;;;;;6099642;23;20434;-91
2023/09/07 09:23:56;;;;;;;5.40;3.07;;;25.60;79.90;;;;;;6097734;23;20387;-91
2023/09/07 09:26:23;;;;;;;3.88;3.22;;;25.70;77.20;;;;;;6099279;23;20383;-92
2023/09/07 09:28:52;;;;;;;3.97;3.00;;;25.80;76.10;;;;;;6099268;23;20398;-93
2023/09/07 09:31:18;;;;;;;4.00;3.07;;;25.90;75.90;;;;;;6122219;23;20371;-91
2023/09/07 09:33:49;;;;;;;3.53;3.00;;;26.00;70.70;;;;;;6099432;23;20719;-89
2023/09/07 09:36:14;;;;;;;5.45;2.88;;;26.00;68.30;;;;;;6097335;23;20383;-92
2023/09/07 09:38:49;;;;;;;3.58;3.03;;;26.10;69.10;;;;;;6099439;23;20433;-90
2023/09/07 09:41:16;;;;;;;5.65;3.45;;;26.20;76.00;;;;;;6097906;23;20371;-90
2023/09/07 09:43:44;;;;;;;5.20;3.13;;;26.30;74.50;;;;;;6098987;23;20402;-91
2023/09/07 09:46:10;;;;;;;4.15;2.92;;;26.60;71.90;;;;;;6123584;23;20698;-91
2023/09/07 09:48:36;;;;;;;5.55;2.90;;;26.60;66.90;;;;;;6097739;23;20383;-91
2023/09/07 09:51:03;;;;;;;4.35;2.83;;;26.70;72.10;;;;;;6099424;23;20401;-89
2023/09/07 09:53:30;;;;;;;4.03;3.33;;;26.80;71.40;;;;;;6097256;23;20422;-92
2023/09/07 09:55:56;;;;;;;4.22;3.20;;;27.00;66.10;;;;;;6099168;23;20971;-90
2023/09/07 09:58:22;;;;;;;4.20;3.20;;;27.20;65.00;;;;;;6097233;23;20458;-92
2023/09/07 10:00:51;;;;;;;4.13;3.10;;;27.50;63.70;;;;;;6099392;23;20382;-92
2023/09/07 10:03:45;;;;;;;3.85;2.85;;;27.80;64.60;;;;;;6123177;23;20386;-90
2023/09/07 10:06:17;;;;;;;3.50;2.47;;;28.20;62.30;;;;;;6097224;23;20441;-91
2023/09/07 10:08:55;;;;;;;4.75;2.90;;;28.80;55.90;;;;;;6099346;23;20399;-91
2023/09/07 10:11:29;;;;;;;5.43;2.60;;;29.20;53.00;;;;;;6096916;23;20375;-92
2023/09/07 10:13:59;;;;;;;2.72;2.53;;;29.70;54.00;;;;;;6098251;23;20409;-91
2023/09/07 10:16:27;;;;;;;4.32;2.70;;;30.20;50.70;;;;;;6098542;23;20387;-92
2023/09/07 10:18:53;;;;;;;3.85;2.67;;;30.60;51.50;;;;;;6122069;23;20394;-92
2023/09/07 10:21:18;;;;;;;3.13;2.40;;;31.00;48.60;;;;;;6098799;23;20685;-91
2023/09/07 10:23:45;;;;;;;3.00;2.70;;;31.40;48.90;;;;;;6097339;23;20386;-92
2023/09/07 10:26:13;;;;;;;4.03;2.60;;;31.50;49.10;;;;;;6098954;23;20887;-93
2023/09/07 10:28:39;;;;;;;4.75;2.20;;;31.80;45.80;;;;;;6096851;23;20434;-90
2023/09/07 10:31:06;;;;;;;5.22;2.30;;;31.90;43.40;;;;;;6098171;23;20390;-91
2023/09/07 10:33:35;;;;;;;3.08;2.40;;;32.10;45.50;;;;;;6098077;23;20395;-90
2023/09/07 10:36:03;;;;;;;2.95;2.22;;;32.30;45.20;;;;;;6121881;23;20872;-91
2023/09/07 10:38:30;;;;;;;4.75;2.63;;;32.30;44.10;;;;;;6098686;23;20382;-92
2023/09/07 10:41:00;;;;;;;4.68;2.00;;;32.50;44.00;;;;;;6096636;23;20887;-93
2023/09/07 10:43:27;;;;;;;3.20;2.35;;;32.70;45.40;;;;;;6098933;23;20418;-92
2023/09/07 10:45:57;;;;;;;2.63;2.37;;;32.80;40.90;;;;;;6096460;23;20375;-91
2023/09/07 10:48:28;;;;;;;4.30;2.15;;;33.00;44.90;;;;;;6098359;23;20899;-92
2023/09/07 10:50:54;;;;;;;4.50;2.20;;;33.20;43.70;;;;;;6097663;23;20390;-90
2023/09/07 10:53:31;;;;;;;3.50;2.60;;;33.30;42.40;;;;;;6097202;23;20911;-92
2023/09/07 10:56:01;;;;;;;2.90;2.40;;;33.50;40.30;;;;;;6122501;23;20462;-91
2023/09/07 10:58:32;;;;;;;4.10;2.20;;;33.60;40.80;;;;;;6096608;23;20485;-91
2023/09/07 11:00:58;;;;;;;4.63;2.30;;;33.80;43.10;;;;;;6098227;23;20375;-91
2023/09/07 11:03:28;;;;;;;4.22;2.60;;;34.20;43.80;;;;;;6121350;23;20371;-91
2023/09/07 11:06:03;;;;;;;2.80;2.17;;;34.30;41.90;;;;;;6148966;23;20362;-92
2023/09/07 11:08:30;;;;;;;3.45;2.25;;;34.60;42.40;;;;;;6098240;23;20379;-92
2023/09/07 11:10:56;;;;;;;3.33;2.10;;;34.70;41.70;;;;;;6097135;23;20375;-92
2023/09/07 11:13:24;;;;;;;4.43;2.42;;;34.70;39.70;;;;;;6098276;23;20398;-92
2023/09/07 11:15:52;;;;;;;2.85;2.33;;;34.70;43.00;;;;;;6096342;23;20450;-93
2023/09/07 11:18:22;;;;;;;3.50;2.20;;;34.60;40.70;;;;;;6123253;23;21086;-91
2023/09/07 11:20:49;;;;;;;4.13;2.57;;;34.70;41.00;;;;;;6096362;23;20375;-91
2023/09/07 11:23:16;;;;;;;3.45;2.38;;;35.00;41.50;;;;;;6097876;23;20848;-93
2023/09/07 11:25:42;;;;;;;4.93;2.53;;;35.10;40.30;;;;;;6098267;23;20852;-94
2023/09/07 11:28:09;;;;;;;2.70;2.20;;;35.30;41.40;;;;;;6096677;23;20375;-90
2023/09/07 11:30:35;;;;;;;3.80;2.27;;;35.40;41.90;;;;;;6098016;23;20386;-91
2023/09/07 11:33:06;;;;;;;3.50;2.10;;;35.50;37.30;;;;;;6096271;23;20674;-93
2023/09/07 11:35:32;;;;;;;3.28;2.50;;;35.50;39.90;;;;;;6122288;23;20375;-92
2023/09/07 11:38:00;;;;;;;4.13;2.13;;;35.50;40.80;;;;;;6120337;23;20373;-92
2023/09/07 11:40:26;;;;;;;4.43;2.38;;;35.70;41.20;;;;;;6098173;23;20860;-92
2023/09/07 11:42:52;;;;;;;3.47;2.25;;;35.90;38.40;;;;;;6096818;23;20380;-92
2023/09/07 11:45:19;;;;;;;3.78;2.53;;;35.90;39.70;;;;;;6121593;23;20381;-92
2023/09/07 11:47:45;;;;;;;2.50;2.30;;;35.90;38.70;;;;;;6098490;23;20382;-92
2023/09/07 11:50:10;;;;;;;3.22;2.33;;;35.90;39.20;;;;;;6120734;23;20367;-92
2023/09/07 11:52:36;;;;;;;3.83;2.47;;;35.80;37.60;;;;;;6097902;23;20710;-91
2023/09/07 11:55:03;;;;;;;3.87;2.70;;;35.70;38.90;;;;;;6095701;23;20399;-90
2023/09/07 11:57:29;;;;;;;3.90;2.50;;;35.70;39.90;;;;;;6098486;23;20474;-92
2023/09/07 11:59:55;;;;;;;3.13;2.33;;;35.80;40.80;;;;;;6096125;23;20372;-91
2023/09/07 12:02:21;;;;;;;5.10;2.67;;;35.90;39.30;;;;;;6097528;23;20441;-90
2023/09/07 12:04:47;;;;;;;5.20;2.45;;;35.90;37.90;;;;;;6097526;23;20375;-92
2023/09/07 12:07:14;;;;;;;3.83;2.80;;;35.90;37.80;;;;;;6095851;23;20383;-91
2023/09/07 12:09:40;;;;;;;3.58;2.17;;;35.90;38.80;;;;;;6098316;23;20367;-91
2023/09/07 12:12:06;;;;;;;4.00;2.40;;;36.10;38.60;;;;;;6095858;23;20378;-92
2023/09/07 12:14:32;;;;;;;3.25;2.53;;;36.20;38.90;;;;;;6092376;23;20797;-91
2023/09/07 12:16:58;;;;;;;3.45;2.67;;;36.20;39.40;;;;;;6115556;23;20392;-91
2023/09/07 12:19:24;;;;;;;3.20;2.60;;;36.00;37.40;;;;;;6093115;23;20369;-92
2023/09/07 12:21:51;;;;;;;3.47;2.38;;;36.00;36.70;;;;;;6116399;23;20384;-92
2023/09/07 12:24:17;;;;;;;3.40;2.60;;;35.90;37.60;;;;;;6092242;23;20499;-91
2023/09/07 12:26:43;;;;;;;3.27;2.40;;;36.20;37.60;;;;;;6093058;23;20377;-91
2023/09/07 12:29:08;;;;;;;3.03;2.60;;;36.30;37.70;;;;;;6090194;23;20380;-90
2023/09/07 12:31:34;;;;;;;2.75;2.40;;;36.60;39.90;;;;;;6092708;23;20388;-92
2023/09/07 12:34:00;;;;;;;3.22;2.22;;;36.70;37.80;;;;;;6090118;23;20401;-92
2023/09/07 12:36:29;;;;;;;2.77;2.50;;;37.10;38.20;;;;;;6092733;23;20679;-92
2023/09/07 12:39:00;;;;;;;3.88;2.63;;;37.40;38.90;;;;;;6091213;23;20702;-93